Weather at ASD Salento Fly

Public forecast

Using degrees Celsius for public forecast. Weather courtesy of forecast.io.

Closest aviation weather report (METAR) to ASD Salento Fly

Closest report is Lecce Galatina Air Base, 7.4 nm (13.8 km) SSE. Retrieved 2021/10/16 00:55 UTC (37 minutes ago):

LIBN 160055Z 29008KT 9999 SCT030 BKN040 13/11 Q1009 RMK OVC VIS MIN 9999 WIND THR14 30007KT WIND THR32 29008KT BLU

Closest aviation forecast (TAF) to ASD Salento Fly

Forecast is more than 12 hours old.

Closest forecast is Lecce Galatina Air Base, 7.4 nm (13.8 km) SSE. Retrieved 2021/06/28 12:51 UTC (4 months ago):

TAF TAF LIBN 281100Z 2812/2824 VRB03KT CAVOK